アンタナナリボ の空港の天気 - METARとTAF

イヴァト空港(アンタナナリボ) ( FMMI / TNR ) - マダガスカル アンタナナリボ
飛行場実況気象(Metar)
観測時間07/17 12:30 EAT (07/17 09:30 UTC)
風向・風速南 8m/s
視程10km以上
天気現象
少しの雲 雲底高度 610m
全天の8割程度の雲 雲底高度 700m
気温16℃
湿度59%
気圧1024hPa
METARFMMI 170930Z 18015KT 130V210 9999 FEW020 BKN023 16/08 Q1024 NOSIG
過去の天気等 Google飛行場航空写真 Wunderground天気予報

過去48時間のMETAR

飛行場予報(TAF)
発表時間: -
17日11時 EAT ~ 17日15時 EAT に 確率 30% で一時的に
視程4500m
天気現象霧雨
18日4時 EAT ~ 18日9時 EAT に 確率 30% で一時的に
視程4500m
天気現象霧雨
TAF
FMMI 170500Z 1706/1812 16011KT 9999 FEW017 BKN020
PROB30 TEMPO 1708/1712 4500 DZ
PROB30 TEMPO 1801/1806 4500 DZ